createdAt,value
2019-05-20T00:00:41.872Z,6.47
2019-05-20T00:03:10.737Z,10.75
2019-05-20T00:05:39.724Z,6.25
2019-05-20T00:08:08.651Z,7.10
2019-05-20T00:10:37.512Z,7.35
2019-05-20T00:13:06.351Z,6.65
2019-05-20T00:15:35.523Z,7.60
2019-05-20T00:18:04.372Z,7.25
2019-05-20T00:20:33.243Z,7.62
2019-05-20T00:23:02.095Z,7.90
2019-05-20T00:25:30.958Z,7.12
2019-05-20T00:27:59.880Z,8.25
2019-05-20T00:30:28.994Z,6.70
2019-05-20T00:32:58.187Z,8.65
2019-05-20T00:35:27.047Z,6.90
2019-05-20T00:37:55.898Z,8.43
2019-05-20T00:40:24.764Z,6.80
2019-05-20T00:42:53.619Z,8.40
2019-05-20T00:45:22.473Z,7.53
2019-05-20T00:47:51.416Z,6.05
2019-05-20T00:50:20.264Z,7.10
2019-05-20T00:52:49.110Z,6.80
2019-05-20T00:55:25.019Z,6.97
2019-05-20T00:57:54.203Z,8.03
2019-05-20T01:00:23.119Z,8.30
2019-05-20T01:02:56.940Z,8.33
2019-05-20T01:05:22.535Z,6.83
2019-05-20T01:07:51.395Z,6.92
2019-05-20T01:10:20.309Z,7.28
2019-05-20T01:12:49.171Z,6.75
2019-05-20T01:15:19.291Z,9.35
2019-05-20T01:17:48.135Z,7.60
2019-05-20T01:20:18.067Z,7.17
2019-05-20T01:22:46.915Z,9.00
2019-05-20T01:25:15.783Z,12.95
2019-05-20T01:27:44.635Z,7.85
2019-05-20T01:30:13.861Z,6.90
2019-05-20T01:32:42.711Z,6.95
2019-05-20T01:35:12.116Z,6.90
2019-05-20T01:37:40.975Z,8.18
2019-05-20T01:40:09.899Z,7.37
2019-05-20T01:42:38.784Z,7.85
2019-05-20T01:45:08.212Z,9.23
2019-05-20T01:47:37.064Z,10.85
2019-05-20T01:50:06.296Z,8.15
2019-05-20T01:52:35.148Z,8.53
2019-05-20T01:55:06.745Z,9.08
2019-05-20T01:57:35.608Z,9.58
2019-05-20T02:00:05.795Z,8.15
2019-05-20T02:02:35.996Z,9.18
2019-05-20T02:05:05.952Z,10.00
2019-05-20T02:07:35.872Z,8.35
2019-05-20T02:10:06.316Z,9.10
2019-05-20T02:12:35.159Z,9.10
2019-05-20T02:15:23.625Z,11.30
2019-05-20T02:17:52.797Z,12.65
2019-05-20T02:20:21.659Z,11.73
2019-05-20T02:22:50.891Z,12.00
2019-05-20T02:25:19.831Z,13.50
2019-05-20T02:27:48.694Z,12.70
2019-05-20T02:30:17.880Z,12.60
2019-05-20T02:32:46.737Z,12.30
2019-05-20T02:35:15.679Z,15.90
2019-05-20T02:37:44.973Z,14.85
2019-05-20T02:40:14.011Z,16.77
2019-05-20T02:42:42.932Z,18.02
2019-05-20T02:45:11.862Z,22.10
2019-05-20T02:47:40.738Z,22.60
2019-05-20T02:50:09.767Z,22.75
2019-05-20T02:52:38.626Z,25.88
2019-05-20T02:55:07.773Z,20.60
2019-05-20T02:57:36.639Z,27.00
2019-05-20T03:00:07.271Z,24.95
2019-05-20T03:02:36.259Z,27.62
2019-05-20T03:05:06.080Z,29.18
2019-05-20T03:07:35.299Z,32.17
2019-05-20T03:10:06.224Z,29.65
2019-05-20T03:12:36.074Z,26.23
2019-05-20T03:15:05.692Z,29.35
2019-05-20T03:17:34.555Z,29.20
2019-05-20T03:20:04.516Z,31.97
2019-05-20T03:22:33.372Z,32.23
2019-05-20T03:25:03.964Z,32.93
2019-05-20T03:27:32.812Z,36.33
2019-05-20T03:30:01.688Z,39.03
2019-05-20T03:32:32.033Z,37.80
2019-05-20T03:35:01.567Z,36.48
2019-05-20T03:37:32.101Z,39.45
2019-05-20T03:40:00.962Z,37.17
2019-05-20T03:42:29.895Z,36.80
2019-05-20T03:44:59.034Z,39.60
2019-05-20T03:47:27.908Z,45.25
2019-05-20T03:49:56.777Z,42.38
2019-05-20T03:52:25.716Z,42.40
2019-05-20T03:54:54.582Z,44.98
2019-05-20T03:57:23.441Z,40.38
2019-05-20T03:59:52.307Z,50.17
2019-05-20T04:02:21.211Z,44.53
2019-05-20T04:05:01.365Z,50.35
2019-05-20T04:07:20.948Z,59.13
2019-05-20T04:09:49.820Z,61.08
2019-05-20T04:12:18.701Z,58.58
2019-05-20T04:14:47.628Z,57.13
2019-05-20T04:17:16.503Z,53.33
2019-05-20T04:19:45.360Z,62.93
2019-05-20T04:22:14.254Z,57.53
2019-05-20T04:24:43.192Z,54.33
2019-05-20T04:27:12.386Z,50.38
2019-05-20T04:29:42.319Z,56.70
2019-05-20T04:32:11.187Z,51.35
2019-05-20T04:34:40.301Z,56.33
2019-05-20T04:37:09.177Z,61.75
2019-05-20T04:39:38.035Z,64.92
2019-05-20T04:42:07.306Z,65.60
2019-05-20T04:44:36.257Z,68.80
2019-05-20T04:47:05.125Z,64.17
2019-05-20T04:49:33.975Z,64.22
2019-05-20T04:52:03.176Z,61.23
2019-05-20T04:54:32.050Z,56.53
2019-05-20T04:57:00.910Z,65.17
2019-05-20T04:59:29.780Z,62.23
2019-05-20T05:01:58.644Z,61.70
2019-05-20T05:04:27.499Z,62.30
2019-05-20T05:06:56.373Z,67.47
2019-05-20T05:09:25.385Z,62.90
2019-05-20T05:11:54.256Z,60.55
2019-05-20T05:14:23.137Z,69.25
2019-05-20T05:16:51.995Z,65.45
2019-05-20T05:19:23.828Z,66.20
2019-05-20T05:21:53.247Z,66.40
2019-05-20T05:24:22.108Z,69.10
2019-05-20T05:26:52.007Z,68.50
2019-05-20T05:29:20.867Z,69.30
2019-05-20T05:31:49.735Z,75.70
2019-05-20T05:34:18.599Z,73.25
2019-05-20T05:36:47.463Z,73.80
2019-05-20T05:39:16.320Z,70.97
2019-05-20T05:41:45.187Z,69.10
2019-05-20T05:44:14.051Z,68.10
2019-05-20T05:46:42.903Z,69.53
2019-05-20T05:49:11.795Z,67.47
2019-05-20T05:51:40.653Z,68.42
2019-05-20T05:54:09.515Z,69.45
2019-05-20T05:56:38.620Z,68.80
2019-05-20T05:59:07.553Z,65.30
2019-05-20T06:01:36.424Z,67.25
2019-05-20T06:04:05.612Z,65.00
2019-05-20T06:06:34.470Z,63.63
2019-05-20T06:09:04.701Z,66.67
2019-05-20T06:11:33.561Z,65.37
2019-05-20T06:14:02.424Z,64.92
2019-05-20T06:16:36.362Z,67.72
2019-05-20T06:19:01.862Z,68.30
2019-05-20T06:21:30.728Z,68.12
2019-05-20T06:23:59.607Z,67.03
2019-05-20T06:26:28.527Z,67.30
2019-05-20T06:28:57.383Z,73.33
2019-05-20T06:31:26.247Z,75.35
2019-05-20T06:33:55.116Z,74.45
2019-05-20T06:36:27.137Z,85.03
2019-05-20T06:39:13.312Z,75.00
2019-05-20T06:41:42.524Z,76.97
2019-05-20T06:44:11.659Z,81.40
2019-05-20T06:46:40.864Z,80.38
2019-05-20T06:49:10.068Z,78.45
2019-05-20T06:51:39.004Z,86.20
2019-05-20T06:54:07.869Z,79.65
2019-05-20T06:56:37.903Z,85.70
2019-05-20T06:59:06.768Z,84.47
2019-05-20T07:01:35.869Z,80.55
2019-05-20T07:04:04.801Z,84.80
2019-05-20T07:06:45.487Z,83.55
2019-05-20T07:09:05.401Z,90.45
2019-05-20T07:11:34.235Z,85.77
2019-05-20T07:14:03.276Z,89.37
2019-05-20T07:16:32.140Z,83.35
2019-05-20T07:19:01.300Z,81.17
2019-05-20T07:21:30.228Z,85.85
2019-05-20T07:23:59.115Z,83.65
2019-05-20T07:26:28.041Z,79.05
2019-05-20T07:28:56.971Z,81.97
2019-05-20T07:31:25.843Z,76.90
2019-05-20T07:33:54.768Z,78.95
2019-05-20T07:36:23.636Z,79.37
2019-05-20T07:38:52.487Z,78.52
2019-05-20T07:41:21.366Z,75.40
2019-05-20T07:43:51.202Z,70.87
2019-05-20T07:46:20.134Z,69.47
2019-05-20T07:48:49.481Z,71.37
2019-05-20T07:51:19.804Z,71.77
2019-05-20T07:53:48.773Z,71.95
2019-05-20T07:56:19.164Z,71.47
2019-05-20T07:58:50.057Z,76.28
2019-05-20T08:01:18.912Z,75.12
2019-05-20T08:03:47.776Z,65.37
2019-05-20T08:06:17.020Z,64.95
2019-05-20T08:08:45.899Z,62.90
2019-05-20T08:11:14.757Z,58.85
2019-05-20T08:13:43.629Z,57.40
2019-05-20T08:16:12.485Z,55.52
2019-05-20T08:18:41.407Z,58.58
2019-05-20T08:21:10.272Z,54.85
2019-05-20T08:23:39.417Z,49.13
2019-05-20T08:26:08.271Z,50.20
2019-05-20T08:28:37.129Z,46.60
2019-05-20T08:31:06.410Z,40.35
2019-05-20T08:33:35.468Z,42.00
2019-05-20T08:36:04.405Z,41.13
2019-05-20T08:38:33.264Z,41.75
2019-05-20T08:41:02.128Z,42.73
2019-05-20T08:43:30.999Z,41.92
2019-05-20T08:45:59.866Z,40.15
2019-05-20T08:48:28.828Z,38.63
2019-05-20T08:50:57.875Z,35.38
2019-05-20T08:53:26.749Z,35.73
2019-05-20T08:55:55.625Z,33.92
2019-05-20T08:58:24.463Z,35.95
2019-05-20T09:00:53.341Z,34.63
2019-05-20T09:03:22.193Z,33.20
2019-05-20T09:05:51.187Z,35.45
2019-05-20T09:08:20.052Z,31.33
2019-05-20T09:10:48.911Z,30.17
2019-05-20T09:13:18.125Z,28.90
2019-05-20T09:15:46.976Z,27.90
2019-05-20T09:18:15.923Z,30.02
2019-05-20T09:20:45.117Z,25.08
2019-05-20T09:23:13.980Z,23.73
2019-05-20T09:25:42.899Z,23.77
2019-05-20T09:28:11.843Z,22.62
2019-05-20T09:30:40.843Z,26.17
2019-05-20T09:33:10.112Z,21.40
2019-05-20T09:35:39.043Z,18.67
2019-05-20T09:38:19.398Z,18.20
2019-05-20T09:40:45.794Z,17.35
2019-05-20T09:43:14.648Z,14.45
2019-05-20T09:45:43.550Z,16.12
2019-05-20T09:48:12.522Z,15.30
2019-05-20T09:50:41.389Z,16.60
2019-05-20T09:53:11.207Z,15.83
2019-05-20T09:55:40.479Z,14.90
2019-05-20T09:58:09.320Z,16.48
2019-05-20T10:00:38.183Z,16.50
2019-05-20T10:03:07.753Z,17.60
2019-05-20T10:05:37.581Z,17.77
2019-05-20T10:08:06.932Z,18.30
2019-05-20T10:10:35.956Z,18.37
2019-05-20T10:13:07.274Z,18.23
2019-05-20T10:15:36.755Z,19.82
2019-05-20T10:18:05.623Z,19.52
2019-05-20T10:20:34.475Z,20.60
2019-05-20T10:23:03.364Z,20.92
2019-05-20T10:25:32.275Z,20.97
2019-05-20T10:28:01.146Z,24.85
2019-05-20T10:30:29.995Z,26.27
2019-05-20T10:32:58.861Z,24.55
2019-05-20T10:35:27.712Z,28.40
2019-05-20T10:37:56.899Z,27.25
2019-05-20T10:40:25.755Z,24.75
2019-05-20T10:42:54.615Z,25.90
2019-05-20T10:45:23.490Z,28.50
2019-05-20T10:47:52.347Z,23.85
2019-05-20T10:50:21.289Z,25.85
2019-05-20T10:52:50.144Z,27.07
2019-05-20T10:55:19.768Z,25.10
2019-05-20T10:57:48.627Z,25.52
2019-05-20T11:00:19.185Z,25.05
2019-05-20T11:02:48.025Z,28.12
2019-05-20T11:05:17.523Z,28.75
2019-05-20T11:07:46.423Z,28.23
2019-05-20T11:10:16.235Z,26.90
2019-05-20T11:12:45.079Z,30.90
2019-05-20T11:15:14.014Z,32.65
2019-05-20T11:17:43.195Z,30.70
2019-05-20T11:20:12.127Z,36.95
2019-05-20T11:22:41.299Z,34.33
2019-05-20T11:25:10.491Z,37.50
2019-05-20T11:27:39.351Z,38.08
2019-05-20T11:30:09.008Z,38.10
2019-05-20T11:32:37.876Z,37.15
2019-05-20T11:35:07.306Z,38.45
2019-05-20T11:37:39.475Z,42.03
2019-05-20T11:40:09.373Z,39.50
2019-05-20T11:42:40.126Z,45.20
2019-05-20T11:45:09.394Z,46.53
2019-05-20T11:47:38.246Z,48.92
2019-05-20T11:50:10.389Z,47.35
2019-05-20T11:52:39.285Z,49.13
2019-05-20T11:55:08.718Z,51.15
2019-05-20T11:57:37.559Z,53.20
2019-05-20T12:00:08.375Z,52.75
2019-05-20T12:02:44.583Z,51.40
2019-05-20T12:05:10.616Z,55.30
2019-05-20T12:07:39.736Z,53.25
2019-05-20T12:10:09.169Z,54.63
2019-05-20T12:12:39.024Z,55.35
2019-05-20T12:15:09.067Z,58.13
2019-05-20T12:17:38.004Z,59.45
2019-05-20T12:20:10.318Z,56.68
2019-05-20T12:22:38.987Z,57.38
2019-05-20T12:25:08.703Z,57.62
2019-05-20T12:27:37.941Z,67.27
2019-05-20T12:30:06.967Z,60.85
2019-05-20T12:32:35.911Z,59.20
2019-05-20T12:35:06.413Z,64.75
2019-05-20T12:37:36.242Z,67.82
2019-05-20T12:40:07.455Z,65.85
2019-05-20T12:42:36.103Z,63.23
2019-05-20T12:45:08.405Z,69.37
2019-05-20T12:47:46.365Z,63.48
2019-05-20T12:50:15.571Z,70.62
2019-05-20T12:52:44.508Z,63.80
2019-05-20T12:55:13.507Z,70.28
2019-05-20T12:57:42.976Z,72.35
2019-05-20T13:00:12.985Z,68.02
2019-05-20T13:02:41.919Z,67.30
2019-05-20T13:05:12.131Z,68.37
2019-05-20T13:07:41.022Z,66.40
2019-05-20T13:10:26.553Z,73.00
2019-05-20T13:12:41.137Z,71.42
2019-05-20T13:15:10.476Z,66.50
2019-05-20T13:17:44.247Z,78.10
2019-05-20T13:20:10.064Z,73.85
2019-05-20T13:22:38.939Z,73.33
2019-05-20T13:25:08.674Z,79.00
2019-05-20T13:27:37.787Z,75.40
2019-05-20T13:30:08.123Z,82.02
2019-05-20T13:32:37.013Z,81.50
2019-05-20T13:35:06.226Z,83.72
2019-05-20T13:37:35.106Z,83.58
2019-05-20T13:40:06.909Z,87.95
2019-05-20T13:42:36.384Z,90.15
2019-05-20T13:45:05.603Z,87.40
2019-05-20T13:47:34.467Z,83.27
2019-05-20T13:50:06.360Z,84.52
2019-05-20T13:52:35.276Z,85.72
2019-05-20T13:55:05.175Z,86.57
2019-05-20T13:57:34.043Z,88.47
2019-05-20T14:00:03.187Z,87.97
2019-05-20T14:02:32.445Z,89.22
2019-05-20T14:05:01.331Z,86.78
2019-05-20T14:07:30.243Z,89.45
2019-05-20T14:09:59.108Z,91.22
2019-05-20T14:12:27.968Z,89.05
2019-05-20T14:14:56.842Z,86.85
2019-05-20T14:17:26.017Z,83.55
2019-05-20T14:19:54.923Z,85.92
2019-05-20T14:22:23.811Z,81.92
2019-05-20T14:24:52.681Z,87.78
2019-05-20T14:27:21.541Z,86.20
2019-05-20T14:29:50.407Z,87.70
2019-05-20T14:32:19.279Z,87.00
2019-05-20T14:34:48.138Z,87.60
2019-05-20T14:37:17.004Z,94.15
2019-05-20T14:39:46.059Z,86.85
2019-05-20T14:42:16.225Z,89.83
2019-05-20T14:44:45.075Z,89.70
2019-05-20T14:47:14.349Z,99.07
2019-05-20T14:49:43.261Z,91.70
2019-05-20T14:52:12.179Z,93.65
2019-05-20T14:54:41.047Z,92.72
2019-05-20T14:57:09.907Z,92.25
2019-05-20T14:59:38.776Z,94.10
2019-05-20T15:02:08.928Z,96.42
2019-05-20T15:04:37.786Z,89.90
2019-05-20T15:07:06.643Z,93.50
2019-05-20T15:09:35.584Z,98.25
2019-05-20T15:12:04.472Z,104.80
2019-05-20T15:14:33.337Z,92.02
2019-05-20T15:17:02.204Z,101.15
2019-05-20T15:19:31.067Z,97.62
2019-05-20T15:21:59.931Z,96.05
2019-05-20T15:24:29.033Z,100.95
2019-05-20T15:26:57.999Z,96.65
2019-05-20T15:29:28.567Z,100.72
2019-05-20T15:31:57.643Z,105.87
2019-05-20T15:34:26.740Z,96.00
2019-05-20T15:36:55.596Z,98.60
2019-05-20T15:39:24.508Z,100.33
2019-05-20T15:41:53.422Z,100.18
2019-05-20T15:44:22.283Z,98.95
2019-05-20T15:46:51.143Z,102.27
2019-05-20T15:49:20.019Z,103.05
2019-05-20T15:51:48.882Z,100.55
2019-05-20T15:54:17.750Z,103.75
2019-05-20T15:56:46.624Z,102.38
2019-05-20T15:59:15.491Z,95.05
2019-05-20T16:01:44.358Z,107.87
2019-05-20T16:04:15.375Z,104.53
2019-05-20T16:06:44.224Z,105.27
2019-05-20T16:09:17.017Z,104.12
2019-05-20T16:11:43.663Z,105.65
2019-05-20T16:14:12.535Z,104.87
2019-05-20T16:16:41.644Z,104.95
2019-05-20T16:19:10.508Z,97.80
2019-05-20T16:21:39.635Z,102.12
2019-05-20T16:24:08.491Z,102.87
2019-05-20T16:26:37.375Z,111.45
2019-05-20T16:29:06.301Z,103.75
2019-05-20T16:31:35.163Z,102.40
2019-05-20T16:34:04.097Z,102.60
2019-05-20T16:36:32.996Z,106.70
2019-05-20T16:39:01.848Z,100.78
2019-05-20T16:41:32.484Z,104.43
2019-05-20T16:44:01.387Z,111.30
2019-05-20T16:46:30.264Z,103.72
2019-05-20T16:48:59.217Z,99.77
2019-05-20T16:51:28.079Z,95.47
2019-05-20T16:53:57.213Z,104.00
2019-05-20T16:56:26.165Z,99.97
2019-05-20T16:58:56.076Z,101.47
2019-05-20T17:01:24.940Z,91.82
2019-05-20T17:03:53.799Z,94.83
2019-05-20T17:06:22.664Z,93.97
2019-05-20T17:08:51.527Z,92.65
2019-05-20T17:11:20.696Z,91.78
2019-05-20T17:13:49.560Z,87.72
2019-05-20T17:16:21.298Z,88.90
2019-05-20T17:18:51.232Z,85.67
2019-05-20T17:21:20.159Z,83.55
2019-05-20T17:23:49.099Z,87.00
2019-05-20T17:26:17.979Z,88.37
2019-05-20T17:28:46.844Z,80.97
2019-05-20T17:31:15.699Z,81.22
2019-05-20T17:33:44.940Z,81.78
2019-05-20T17:36:14.035Z,84.80
2019-05-20T17:38:42.903Z,84.35
2019-05-20T17:41:11.795Z,83.15
2019-05-20T17:43:40.655Z,80.42
2019-05-20T17:46:09.526Z,82.37
2019-05-20T17:48:38.625Z,84.50
2019-05-20T17:51:08.987Z,90.65
2019-05-20T17:53:37.857Z,85.47
2019-05-20T17:56:06.903Z,94.30
2019-05-20T17:58:37.385Z,87.17
2019-05-20T18:01:15.437Z,84.13
2019-05-20T18:03:37.075Z,82.25
2019-05-20T18:06:05.939Z,84.77
2019-05-20T18:08:36.444Z,90.22
2019-05-20T18:11:05.327Z,89.45
2019-05-20T18:13:34.163Z,89.00
2019-05-20T18:16:03.087Z,86.85
2019-05-20T18:18:31.951Z,88.52
2019-05-20T18:21:00.878Z,86.85
2019-05-20T18:23:29.738Z,88.70
2019-05-20T18:25:58.619Z,90.72
2019-05-20T18:28:27.468Z,101.65
2019-05-20T18:30:56.337Z,95.42
2019-05-20T18:33:25.202Z,93.75
2019-05-20T18:35:54.071Z,94.85
2019-05-20T18:38:22.936Z,97.35
2019-05-20T18:40:51.799Z,97.88
2019-05-20T18:43:20.652Z,95.75
2019-05-20T18:45:49.575Z,96.30
2019-05-20T18:48:19.398Z,104.25
2019-05-20T18:50:48.255Z,102.35
2019-05-20T18:53:18.419Z,96.35
2019-05-20T18:55:47.330Z,102.42
2019-05-20T18:58:16.337Z,105.12
2019-05-20T19:00:45.192Z,105.25
2019-05-20T19:03:14.062Z,98.50
2019-05-20T19:05:42.982Z,104.72
2019-05-20T19:08:11.918Z,102.45
2019-05-20T19:10:41.156Z,99.90
2019-05-20T19:13:10.062Z,103.62
2019-05-20T19:15:38.944Z,107.43
2019-05-20T19:18:07.877Z,103.47
2019-05-20T19:20:36.819Z,105.78
2019-05-20T19:23:05.679Z,110.97
2019-05-20T19:25:37.625Z,102.67
2019-05-20T19:28:05.171Z,104.25
2019-05-20T19:30:34.048Z,106.20
2019-05-20T19:33:02.978Z,112.40
2019-05-20T19:35:32.911Z,108.03
2019-05-20T19:38:01.843Z,111.37
2019-05-20T19:40:30.875Z,111.75
2019-05-20T19:43:00.076Z,120.72
2019-05-20T19:45:28.943Z,114.50
2019-05-20T19:47:57.798Z,121.05
2019-05-20T19:50:26.666Z,115.67
2019-05-20T19:52:55.589Z,114.97
2019-05-20T19:55:24.510Z,121.82
2019-05-20T19:57:53.454Z,120.87
2019-05-20T20:00:22.336Z,122.47
2019-05-20T20:02:51.493Z,123.97
2019-05-20T20:05:20.355Z,123.00
2019-05-20T20:07:49.216Z,120.08
2019-05-20T20:10:18.157Z,123.10
2019-05-20T20:12:47.280Z,123.45
2019-05-20T20:15:17.091Z,128.47
2019-05-20T20:17:46.027Z,122.70
2019-05-20T20:20:14.955Z,114.08
2019-05-20T20:22:43.824Z,120.15
2019-05-20T20:25:12.683Z,121.42
2019-05-20T20:27:41.548Z,119.67
2019-05-20T20:30:11.394Z,121.67
2019-05-20T20:32:40.367Z,121.67
2019-05-20T20:35:11.235Z,128.68
2019-05-20T20:37:40.177Z,123.47
2019-05-20T20:40:09.147Z,120.90
2019-05-20T20:42:38.004Z,121.87
2019-05-20T20:45:07.102Z,120.70
2019-05-20T20:47:41.929Z,125.58
2019-05-20T20:50:08.331Z,118.97
2019-05-20T20:52:37.187Z,110.45
2019-05-20T20:55:06.768Z,105.25
2019-05-20T20:57:35.995Z,122.05
2019-05-20T21:00:06.508Z,123.40
2019-05-20T21:02:50.670Z,123.15
2019-05-20T21:05:08.136Z,139.65
2019-05-20T21:07:37.718Z,132.60
2019-05-20T21:10:06.851Z,133.07
2019-05-20T21:12:35.719Z,132.67
2019-05-20T21:15:05.359Z,126.62
2019-05-20T21:17:34.227Z,125.60
2019-05-20T21:20:04.055Z,120.42
2019-05-20T21:22:32.999Z,127.45
2019-05-20T21:25:01.863Z,140.47
2019-05-20T21:27:30.804Z,135.12
2019-05-20T21:29:59.663Z,145.25
2019-05-20T21:32:28.528Z,133.67
2019-05-20T21:34:57.395Z,148.53
2019-05-20T21:37:26.259Z,153.32
2019-05-20T21:39:55.364Z,163.43
2019-05-20T21:42:24.223Z,162.97
2019-05-20T21:44:53.101Z,163.85
2019-05-20T21:47:21.963Z,171.02
2019-05-20T21:49:50.823Z,165.47
2019-05-20T21:52:19.695Z,164.90
2019-05-20T21:54:48.804Z,170.85
2019-05-20T21:57:17.663Z,173.78
2019-05-20T21:59:46.531Z,165.43
2019-05-20T22:02:16.358Z,170.55
2019-05-20T22:04:45.231Z,171.87
2019-05-20T22:07:14.163Z,172.57
2019-05-20T22:09:43.053Z,175.00
2019-05-20T22:12:12.138Z,172.90
2019-05-20T22:14:41.010Z,168.62
2019-05-20T22:17:10.939Z,166.65
2019-05-20T22:19:39.833Z,172.82
2019-05-20T22:22:12.981Z,166.18
2019-05-20T22:24:41.850Z,168.93
2019-05-20T22:27:10.707Z,165.55
2019-05-20T22:29:39.599Z,168.30
2019-05-20T22:32:08.460Z,164.75
2019-05-20T22:34:37.322Z,165.43
2019-05-20T22:37:06.184Z,167.65
2019-05-20T22:39:35.051Z,165.70
2019-05-20T22:42:03.916Z,174.00
2019-05-20T22:44:33.060Z,175.07
2019-05-20T22:47:01.927Z,178.65
2019-05-20T22:49:30.783Z,170.60
2019-05-20T22:51:59.656Z,177.85
2019-05-20T22:54:28.519Z,184.97
2019-05-20T22:56:57.392Z,187.92
2019-05-20T22:59:26.259Z,186.32
2019-05-20T23:01:55.156Z,185.70
2019-05-20T23:04:24.022Z,187.70
2019-05-20T23:06:52.880Z,190.53
2019-05-20T23:09:21.755Z,183.42
2019-05-20T23:11:50.613Z,181.75
2019-05-20T23:14:19.488Z,182.93
2019-05-20T23:16:48.343Z,178.93
2019-05-20T23:19:17.485Z,183.65
2019-05-20T23:21:46.343Z,191.65
2019-05-20T23:24:15.216Z,191.22
2019-05-20T23:26:44.130Z,187.82
2019-05-20T23:29:13.003Z,179.27
2019-05-20T23:31:42.155Z,186.52
2019-05-20T23:34:13.209Z,181.63
2019-05-20T23:36:41.888Z,171.90
2019-05-20T23:39:10.754Z,174.18
2019-05-20T23:41:39.615Z,171.15
2019-05-20T23:44:08.740Z,179.80
2019-05-20T23:46:37.600Z,178.38
2019-05-20T23:49:06.467Z,168.40
2019-05-20T23:51:35.671Z,159.22
2019-05-20T23:54:04.535Z,165.32
2019-05-20T23:56:33.407Z,167.72
2019-05-20T23:59:02.502Z,155.18
